Maple Dell, Vermont
Current Conditions -  °F | °C
As of 5:54 PM on Wednesday 22 Oct 2014 (Local Time) from KVSF Reporting Station
Overcast Overcast  
Wind Chill: 50°   Ceiling: 2800
Heat Index: 50°   Visibility: 10mi
Dew Point: 45°   Wind: 8mph
Humidity: 83%   Direction: 10°N
Pressure: 30.02"   Gusts: NA
Location:  43.3096°N, 72.4675°W
Report Text: KVSF 222154Z AUTO 01007KT 340V050 10SM OVC028 10/07 A3002 RMK AO2 RAE52 SLP170 P0001 T01000072
Loading
Personal Weather Stations






























Interactive Weather Map
Tropical Storm Tracking
New forecast layout! Learn more

10-Day Weather Forecast

Advertisements
Track Severe Weather on mobile